Time;durP1;ratioP1;P1;durP2;ratioP2;P2;SDS_P1;SDS_P2;PMS_P1;PMS_P2;Temp;Humidity;BMP_temperature;BMP_pressure;BME280_temperature;BME280_humidity;BME280_pressure;Samples;Min_cycle;Max_cycle;Signal;HPM_P1;HPM_P2
2023/01/02 00:00:14;;;;;;;10.47;4.07;;;;;;;12.40;100.00;99929.25;5079446;28;20496;-65
2023/01/02 00:02:41;;;;;;;9.63;3.70;;;;;;;12.48;100.00;99919.56;5089043;28;20809;-66
2023/01/02 00:05:09;;;;;;;9.87;3.70;;;;;;;12.54;100.00;99910.91;5088241;28;20453;-65
2023/01/02 00:07:36;;;;;;;9.03;3.70;;;;;;;12.50;100.00;99905.00;5090568;28;20445;-65
2023/01/02 00:10:03;;;;;;;8.57;4.97;;;;;;;12.46;100.00;99900.13;5090146;28;20460;-65
2023/01/02 00:12:30;;;;;;;6.33;4.10;;;;;;;12.47;100.00;99904.50;5081480;28;20476;-65
2023/01/02 00:14:57;;;;;;;7.63;3.70;;;;;;;12.46;100.00;99900.97;5090092;28;20479;-65
2023/01/02 00:17:25;;;;;;;5.30;3.70;;;;;;;12.58;100.00;99904.19;5084087;28;20460;-65
2023/01/02 00:19:52;;;;;;;8.67;4.00;;;;;;;12.55;100.00;99894.66;5092900;28;20452;-65
2023/01/02 00:22:18;;;;;;;6.50;3.53;;;;;;;12.51;100.00;99887.91;5086752;28;20477;-65
2023/01/02 00:24:45;;;;;;;12.77;3.80;;;;;;;12.38;100.00;99874.97;5094814;28;20441;-61
2023/01/02 00:27:12;;;;;;;9.53;3.87;;;;;;;12.36;100.00;99874.28;5103827;28;20956;-61
2023/01/02 00:29:38;;;;;;;6.27;3.50;;;;;;;12.39;100.00;99867.75;5094939;28;20452;-61
2023/01/02 00:32:06;;;;;;;9.50;3.70;;;;;;;12.43;100.00;99859.25;5083929;28;20483;-61
2023/01/02 00:34:34;;;;;;;5.57;3.50;;;;;;;12.58;100.00;99864.81;5072545;28;20457;-61
2023/01/02 00:37:01;;;;;;;6.63;3.40;;;;;;;12.61;100.00;99866.34;5096406;28;20480;-61
2023/01/02 00:39:28;;;;;;;10.80;4.03;;;;;;;12.63;100.00;99853.59;5097674;28;20523;-61
2023/01/02 00:41:55;;;;;;;6.27;3.60;;;;;;;12.59;100.00;99857.63;5065395;28;20843;-61
2023/01/02 00:44:21;;;;;;;7.20;3.90;;;;;;;12.69;100.00;99852.94;5069309;28;20464;-61
2023/01/02 00:46:48;;;;;;;10.10;3.77;;;;;;;12.70;100.00;99843.06;5083694;28;20564;-61
2023/01/02 00:49:15;;;;;;;9.87;3.80;;;;;;;12.77;100.00;99839.53;5079539;28;20522;-61
2023/01/02 00:51:43;;;;;;;7.63;3.73;;;;;;;12.90;100.00;99857.84;5064578;28;20496;-61
2023/01/02 00:54:10;;;;;;;5.87;3.57;;;;;;;12.94;99.65;99864.56;5083262;28;21758;-62
2023/01/02 00:56:37;;;;;;;7.23;3.57;;;;;;;12.95;99.02;99857.34;5083174;28;20508;-61
2023/01/02 00:59:03;;;;;;;6.50;3.60;;;;;;;13.07;97.85;99853.34;5082561;28;20457;-60
2023/01/02 01:01:31;;;;;;;7.30;3.90;;;;;;;13.08;98.04;99846.97;5060928;28;20478;-61
2023/01/02 01:03:57;;;;;;;5.57;3.00;;;;;;;12.99;98.26;99854.16;5079436;28;20539;-61
2023/01/02 01:06:24;;;;;;;11.93;3.27;;;;;;;13.02;96.84;99844.09;5081505;28;20485;-61
2023/01/02 01:08:52;;;;;;;11.97;2.87;;;;;;;13.10;96.91;99841.44;5078351;28;20457;-61
2023/01/02 01:11:19;;;;;;;5.23;2.90;;;;;;;13.07;97.30;99837.25;5064236;28;20470;-61
2023/01/02 01:13:46;;;;;;;7.70;3.20;;;;;;;13.09;96.02;99840.59;5077898;28;20445;-61
2023/01/02 01:16:15;;;;;;;4.53;3.13;;;;;;;13.14;95.63;99837.38;5074427;28;20485;-61
2023/01/02 01:18:42;;;;;;;8.37;3.30;;;;;;;13.21;94.96;99837.56;5065522;28;20866;-61
2023/01/02 01:21:09;;;;;;;9.67;3.40;;;;;;;13.23;95.12;99847.16;5081989;28;20482;-61
2023/01/02 01:23:36;;;;;;;8.50;3.30;;;;;;;13.32;94.24;99842.66;5082099;28;20483;-61
2023/01/02 01:26:06;;;;;;;7.47;3.93;;;;;;;13.29;94.81;99856.38;5081514;28;20541;-62
2023/01/02 01:28:33;;;;;;;9.47;4.50;;;;;;;13.25;96.61;99861.22;5073212;28;20458;-61
2023/01/02 01:31:03;;;;;;;5.83;3.23;;;;;;;13.24;97.25;99861.41;5082325;28;20473;-61
2023/01/02 01:33:31;;;;;;;10.70;3.07;;;;;;;13.15;95.97;99855.19;5074589;28;20478;-61
2023/01/02 01:36:01;;;;;;;8.37;3.00;;;;;;;13.22;97.02;99842.78;5062052;28;20470;-61
2023/01/02 01:38:28;;;;;;;5.93;3.23;;;;;;;13.31;95.30;99847.16;5075219;28;20845;-61
2023/01/02 01:40:55;;;;;;;11.00;3.30;;;;;;;13.22;94.55;99834.72;5087919;28;20480;-61
2023/01/02 01:43:37;;;;;;;8.40;3.53;;;;;;;13.29;93.76;99834.88;5095568;28;21043;-61
2023/01/02 01:46:05;;;;;;;8.23;3.10;;;;;;;13.34;93.57;99841.44;5062602;28;20915;-61
2023/01/02 01:48:32;;;;;;;10.77;3.20;;;;;;;13.37;92.22;99832.25;5082759;28;20507;-61
2023/01/02 01:50:59;;;;;;;6.17;3.03;;;;;;;13.61;90.87;99831.38;5087916;28;20499;-61
2023/01/02 01:53:25;;;;;;;6.43;2.73;;;;;;;13.63;90.29;99833.88;5085540;28;20454;-61
2023/01/02 01:55:55;;;;;;;8.40;3.47;;;;;;;13.78;89.06;99834.00;5097701;28;20491;-61
2023/01/02 01:58:24;;;;;;;7.43;3.40;;;;;;;13.73;89.36;99827.31;5091015;28;20443;-61
2023/01/02 02:00:52;;;;;;;6.73;3.17;;;;;;;13.75;87.90;99811.84;5102727;28;20485;-61
2023/01/02 02:03:22;;;;;;;7.97;3.40;;;;;;;13.82;88.28;99822.75;5100859;28;20467;-61
2023/01/02 02:05:49;;;;;;;4.63;3.13;;;;;;;13.78;88.70;99818.72;5101844;28;20473;-61
2023/01/02 02:08:18;;;;;;;6.67;3.00;;;;;;;13.80;89.11;99826.59;5088265;28;20491;-61
2023/01/02 02:10:45;;;;;;;6.50;3.37;;;;;;;13.67;89.99;99821.78;5086274;28;20463;-61
2023/01/02 02:13:12;;;;;;;5.80;2.93;;;;;;;13.77;89.84;99819.75;5085935;28;20553;-61
2023/01/02 02:15:47;;;;;;;7.50;3.20;;;;;;;13.64;90.01;99812.19;5092908;28;21061;-61
2023/01/02 02:18:22;;;;;;;5.70;3.03;;;;;;;13.79;89.56;99823.09;5094157;28;20439;-61
2023/01/02 02:20:51;;;;;;;6.50;3.73;;;;;;;13.72;89.84;99822.09;5092294;28;20493;-65
2023/01/02 02:23:53;;;;;;;5.67;3.50;;;;;;;13.71;90.12;99823.09;5086939;28;20429;-66
2023/01/02 02:26:34;;;;;;;9.07;3.07;;;;;;;13.72;90.93;99822.09;5076538;28;20478;-66
2023/01/02 02:29:46;;;;;;;4.33;2.60;;;;;;;13.55;94.11;99821.28;5090403;28;20461;-66
2023/01/02 02:32:20;;;;;;;4.83;2.93;;;;;;;13.21;97.74;99821.47;5087726;28;20658;-67
2023/01/02 02:34:52;;;;;;;5.23;3.00;;;;;;;13.31;98.49;99817.63;5101679;28;20449;-67
2023/01/02 02:37:25;;;;;;;6.30;3.00;;;;;;;13.31;97.60;99814.06;5081024;28;20492;-67
2023/01/02 02:40:01;;;;;;;6.43;3.00;;;;;;;13.36;97.88;99815.25;5093361;28;20521;-65
2023/01/02 02:42:34;;;;;;;5.83;2.87;;;;;;;13.32;98.49;99821.16;5078483;28;20484;-66
2023/01/02 02:45:14;;;;;;;7.27;3.10;;;;;;;13.35;99.00;99823.53;5101394;28;20438;-66
2023/01/02 02:47:43;;;;;;;6.40;2.80;;;;;;;13.41;99.57;99830.88;5081269;28;20453;-66
2023/01/02 02:50:13;;;;;;;7.10;3.90;;;;;;;13.45;100.00;99832.22;5090315;28;20492;-66
2023/01/02 02:52:44;;;;;;;6.97;3.13;;;;;;;13.28;100.00;99817.09;5082306;28;20444;-66
2023/01/02 02:55:13;;;;;;;6.00;3.10;;;;;;;13.17;100.00;99824.47;5100210;28;20839;-66
2023/01/02 02:57:41;;;;;;;8.03;3.73;;;;;;;13.10;100.00;99820.78;5095804;28;20437;-66
2023/01/02 03:00:13;;;;;;;9.03;3.50;;;;;;;13.25;100.00;99820.97;5101028;28;20479;-67
2023/01/02 03:02:40;;;;;;;7.67;3.67;;;;;;;13.16;100.00;99824.66;5061049;28;20471;-67
2023/01/02 03:05:11;;;;;;;6.03;3.77;;;;;;;13.08;100.00;99824.66;5089942;28;20461;-66
2023/01/02 03:07:42;;;;;;;8.57;3.70;;;;;;;13.04;100.00;99820.63;5100671;28;20454;-66
2023/01/02 03:10:15;;;;;;;7.83;3.57;;;;;;;13.00;100.00;99822.78;5085493;28;20480;-66
2023/01/02 03:12:50;;;;;;;7.03;4.03;;;;;;;12.89;100.00;99817.78;5098601;28;20448;-66
2023/01/02 03:15:24;;;;;;;7.13;3.13;;;;;;;12.96;100.00;99814.25;5094851;28;20932;-66
2023/01/02 03:18:04;;;;;;;11.50;3.67;;;;;;;12.95;100.00;99817.94;5101239;28;21030;-66
2023/01/02 03:20:35;;;;;;;8.57;4.00;;;;;;;12.87;100.00;99815.25;5082080;28;20464;-67
2023/01/02 03:23:05;;;;;;;8.60;3.73;;;;;;;12.85;100.00;99819.13;5093360;28;20508;-68
2023/01/02 03:25:33;;;;;;;9.63;3.83;;;;;;;13.00;100.00;99822.78;5091840;28;20496;-67
2023/01/02 03:28:01;;;;;;;4.23;3.60;;;;;;;13.04;100.00;99816.09;5101204;28;20953;-67
2023/01/02 03:30:32;;;;;;;6.53;3.53;;;;;;;13.13;100.00;99807.03;5083677;28;20958;-68
2023/01/02 03:33:03;;;;;;;8.27;3.30;;;;;;;13.08;100.00;99804.00;5093144;28;20456;-68
2023/01/02 03:35:34;;;;;;;6.33;3.20;;;;;;;13.10;99.63;99804.69;5084870;28;20499;-67
2023/01/02 03:38:03;;;;;;;7.97;4.20;;;;;;;13.01;99.47;99800.34;5101507;28;20463;-68
2023/01/02 03:40:33;;;;;;;12.07;3.50;;;;;;;13.15;99.16;99798.81;5095477;28;20467;-67
2023/01/02 03:43:02;;;;;;;9.27;3.47;;;;;;;13.12;98.79;99808.06;5100637;28;20487;-67
2023/01/02 03:45:32;;;;;;;5.63;3.63;;;;;;;13.19;98.38;99813.56;5086039;28;20465;-67
2023/01/02 03:48:06;;;;;;;11.10;4.00;;;;;;;13.22;98.62;99818.59;5097098;28;20479;-67
2023/01/02 03:50:36;;;;;;;6.23;2.77;;;;;;;13.19;98.43;99819.81;5088627;28;21032;-67
2023/01/02 03:53:03;;;;;;;6.57;3.70;;;;;;;13.09;98.81;99820.94;5080488;28;20451;-66
2023/01/02 03:55:33;;;;;;;8.47;3.43;;;;;;;13.15;98.61;99814.94;5081474;28;20465;-67
2023/01/02 03:58:06;;;;;;;8.30;3.10;;;;;;;13.19;98.62;99818.94;5085628;28;20441;-67
2023/01/02 04:00:41;;;;;;;8.20;3.20;;;;;;;13.20;98.79;99815.25;5085032;28;20531;-66
2023/01/02 04:03:11;;;;;;;6.00;3.67;;;;;;;13.17;98.65;99812.91;5094996;28;20486;-67
2023/01/02 04:05:41;;;;;;;7.37;3.60;;;;;;;13.11;99.25;99801.00;5086901;28;20476;-67
2023/01/02 04:08:11;;;;;;;9.00;3.80;;;;;;;13.08;99.89;99793.28;5099900;28;21204;-66
2023/01/02 04:10:38;;;;;;;6.53;3.60;;;;;;;13.11;99.44;99789.44;5093541;28;20534;-67
2023/01/02 04:13:10;;;;;;;7.73;3.63;;;;;;;13.12;99.63;99791.97;5099092;28;20437;-67
2023/01/02 04:15:40;;;;;;;10.43;3.80;;;;;;;13.07;99.73;99791.63;5060320;28;20465;-67
2023/01/02 04:18:09;;;;;;;5.87;3.20;;;;;;;13.07;99.75;99793.44;5084404;28;20446;-67
2023/01/02 04:20:38;;;;;;;4.33;3.03;;;;;;;13.11;98.21;99789.44;5094840;28;20502;-67
2023/01/02 04:23:08;;;;;;;8.60;3.30;;;;;;;13.15;97.57;99794.28;5100812;28;20973;-67
2023/01/02 04:25:41;;;;;;;13.83;3.93;;;;;;;13.23;96.90;99806.88;5088454;28;20512;-68
2023/01/02 04:28:10;;;;;;;6.33;3.50;;;;;;;13.22;96.37;99802.50;5084841;28;20448;-67
2023/01/02 04:30:42;;;;;;;5.07;3.17;;;;;;;13.30;96.37;99820.47;5089406;28;20484;-67
2023/01/02 04:33:10;;;;;;;9.93;3.13;;;;;;;13.24;97.23;99821.97;5099806;28;20448;-67
2023/01/02 04:35:37;;;;;;;6.90;3.63;;;;;;;13.29;97.42;99824.97;5083871;28;20477;-67
2023/01/02 04:38:08;;;;;;;8.73;4.40;;;;;;;13.24;97.73;99824.66;5093888;28;20474;-67
2023/01/02 04:40:37;;;;;;;8.53;3.00;;;;;;;13.17;97.96;99831.69;5097070;28;20474;-67
2023/01/02 04:43:05;;;;;;;11.43;3.40;;;;;;;13.16;99.23;99833.53;5099453;28;20472;-67
2023/01/02 04:45:31;;;;;;;9.30;3.90;;;;;;;13.02;100.00;99839.59;5097351;28;20517;-68
2023/01/02 04:48:00;;;;;;;8.77;3.90;;;;;;;13.00;100.00;99830.84;5100159;28;20430;-68
2023/01/02 04:50:26;;;;;;;6.80;3.57;;;;;;;12.90;100.00;99831.03;5091727;28;20452;-68
2023/01/02 04:52:53;;;;;;;7.50;3.63;;;;;;;12.75;100.00;99827.31;5090153;28;20445;-68
2023/01/02 04:55:20;;;;;;;7.33;2.80;;;;;;;12.67;100.00;99819.25;5094774;28;20483;-68
2023/01/02 04:57:46;;;;;;;10.03;3.40;;;;;;;12.59;100.00;99820.06;5097489;28;20512;-68
2023/01/02 05:00:14;;;;;;;15.97;4.60;;;;;;;12.75;100.00;99836.19;5097681;28;20453;-68
2023/01/02 05:02:41;;;;;;;13.10;4.90;;;;;;;12.71;100.00;99845.56;5086982;28;20475;-67
2023/01/02 05:05:10;;;;;;;10.33;4.73;;;;;;;12.68;100.00;99832.47;5099901;28;20490;-67
2023/01/02 05:07:37;;;;;;;5.77;3.30;;;;;;;12.48;100.00;99844.50;5098591;28;20479;-67
2023/01/02 05:10:07;;;;;;;7.40;3.50;;;;;;;12.51;100.00;99863.78;5098488;28;20447;-67
2023/01/02 05:12:34;;;;;;;7.87;3.60;;;;;;;12.44;100.00;99846.66;5086418;28;20467;-68
2023/01/02 05:15:02;;;;;;;12.40;5.30;;;;;;;12.40;100.00;99856.03;5103023;28;20455;-67
2023/01/02 05:17:29;;;;;;;6.87;3.73;;;;;;;12.49;100.00;99851.56;5100560;28;20504;-68
2023/01/02 05:19:56;;;;;;;8.20;4.50;;;;;;;12.36;100.00;99849.31;5098550;28;20513;-67
2023/01/02 05:25:09;;;;;;;7.20;3.70;;;;;;;12.34;100.00;99837.91;5097989;28;20471;-68
2023/01/02 05:27:36;;;;;;;10.30;4.60;;;;;;;12.36;100.00;99839.44;5097040;28;20534;-68
2023/01/02 05:30:03;;;;;;;9.23;4.03;;;;;;;12.38;100.00;99847.34;5099484;28;20541;-68
2023/01/02 05:32:30;;;;;;;8.40;4.27;;;;;;;12.39;100.00;99838.28;5082805;28;20472;-68
2023/01/02 05:34:56;;;;;;;7.77;4.60;;;;;;;12.27;100.00;99834.22;5096940;28;20508;-68
2023/01/02 05:37:25;;;;;;;5.80;4.10;;;;;;;12.27;100.00;99832.34;5101273;28;20608;-68
2023/01/02 05:39:52;;;;;;;11.30;4.37;;;;;;;12.26;100.00;99845.94;5087098;28;20486;-68
2023/01/02 05:42:18;;;;;;;11.60;4.50;;;;;;;12.27;100.00;99840.41;5094403;28;20483;-67
2023/01/02 05:44:45;;;;;;;11.63;3.90;;;;;;;12.29;100.00;99838.41;5102300;28;20456;-67
2023/01/02 05:47:12;;;;;;;13.97;4.40;;;;;;;12.20;100.00;99847.41;5089456;28;20488;-67
2023/01/02 05:49:39;;;;;;;7.27;4.13;;;;;;;12.27;100.00;99844.94;5095617;28;20509;-67
2023/01/02 05:52:05;;;;;;;11.20;4.90;;;;;;;12.30;100.00;99850.81;5097910;28;20511;-68
2023/01/02 05:54:34;;;;;;;11.97;4.97;;;;;;;12.26;100.00;99854.81;5102721;28;20489;-67
2023/01/02 05:57:01;;;;;;;9.97;4.07;;;;;;;12.34;100.00;99849.50;5091102;28;20476;-68
2023/01/02 05:59:28;;;;;;;10.07;4.70;;;;;;;12.45;100.00;99853.72;5088252;28;20981;-68
2023/01/02 06:01:54;;;;;;;5.10;3.70;;;;;;;12.30;100.00;99864.19;5090592;28;20545;-68
2023/01/02 06:04:21;;;;;;;10.17;4.20;;;;;;;12.56;100.00;99847.22;5099673;28;20443;-67
2023/01/02 06:06:48;;;;;;;9.33;5.90;;;;;;;12.54;100.00;99849.22;5093935;28;20483;-67
2023/01/02 06:09:16;;;;;;;7.87;4.43;;;;;;;12.58;100.00;99842.50;5089825;28;20468;-67
2023/01/02 06:11:44;;;;;;;6.87;3.97;;;;;;;12.61;100.00;99836.84;5100225;28;20467;-67
2023/01/02 06:14:11;;;;;;;8.57;3.50;;;;;;;12.76;100.00;99839.72;5090670;28;20441;-67
2023/01/02 06:16:38;;;;;;;11.00;4.30;;;;;;;12.79;100.00;99842.06;5088878;28;20487;-67
2023/01/02 06:19:06;;;;;;;6.17;3.07;;;;;;;12.88;100.00;99840.22;5092131;28;20517;-67
2023/01/02 06:21:33;;;;;;;7.10;4.07;;;;;;;12.87;100.00;99834.03;5094745;28;20499;-67
2023/01/02 06:24:00;;;;;;;9.10;4.80;;;;;;;12.90;100.00;99840.91;5098541;28;20517;-67
2023/01/02 06:26:28;;;;;;;11.20;4.60;;;;;;;12.90;100.00;99835.56;5101984;28;21298;-67
2023/01/02 06:28:57;;;;;;;6.40;3.40;;;;;;;12.95;99.43;99843.91;5093146;28;20438;-67
2023/01/02 06:31:26;;;;;;;7.43;3.53;;;;;;;12.92;100.00;99852.31;5088538;28;20704;-67
2023/01/02 06:33:56;;;;;;;10.90;3.97;;;;;;;12.85;99.21;99841.41;5084103;28;20500;-67
2023/01/02 06:36:23;;;;;;;11.37;4.23;;;;;;;12.81;98.40;99832.84;5101735;28;20482;-67
2023/01/02 06:38:50;;;;;;;9.70;3.60;;;;;;;12.86;97.98;99847.59;5092406;28;20456;-68
2023/01/02 06:41:17;;;;;;;6.93;3.90;;;;;;;12.89;97.18;99852.66;5086724;28;20487;-68
2023/01/02 06:43:45;;;;;;;5.43;3.53;;;;;;;12.99;96.29;99856.84;5093580;28;20515;-69
2023/01/02 06:46:15;;;;;;;6.57;3.50;;;;;;;12.98;96.02;99851.63;5096852;28;20510;-68
2023/01/02 06:48:42;;;;;;;6.83;3.30;;;;;;;13.06;95.24;99850.81;5100739;28;20448;-68
2023/01/02 06:51:10;;;;;;;11.40;4.03;;;;;;;13.08;95.74;99859.53;5100345;28;20498;-68
2023/01/02 06:53:38;;;;;;;9.27;2.87;;;;;;;13.14;94.31;99857.03;5095101;28;20452;-69
2023/01/02 06:56:06;;;;;;;8.27;3.57;;;;;;;13.26;94.56;99854.88;5089143;28;20498;-68
2023/01/02 06:58:34;;;;;;;8.07;2.87;;;;;;;13.22;94.27;99866.94;5096840;28;20465;-68
2023/01/02 07:01:02;;;;;;;6.43;3.20;;;;;;;13.26;93.47;99868.28;5091720;28;20495;-68
2023/01/02 07:03:30;;;;;;;13.87;3.60;;;;;;;13.39;92.02;99873.19;5086315;28;20517;-69
2023/01/02 07:06:00;;;;;;;5.20;2.67;;;;;;;13.35;92.09;99864.63;5081617;28;20497;-69
2023/01/02 07:08:27;;;;;;;5.40;2.70;;;;;;;13.41;91.12;99860.41;5098973;28;20446;-69
2023/01/02 07:10:54;;;;;;;5.73;3.00;;;;;;;13.36;92.06;99868.97;5087439;28;20507;-69
2023/01/02 07:13:21;;;;;;;7.00;2.90;;;;;;;13.34;91.21;99856.72;5089038;28;20440;-68
2023/01/02 07:15:48;;;;;;;4.30;2.80;;;;;;;13.32;91.90;99861.44;5080898;28;20838;-68
2023/01/02 07:18:15;;;;;;;9.17;3.23;;;;;;;13.40;91.71;99863.28;5100017;28;20441;-69
2023/01/02 07:20:43;;;;;;;6.70;3.10;;;;;;;13.43;92.21;99860.25;5089625;28;20471;-69
2023/01/02 07:23:10;;;;;;;6.50;3.07;;;;;;;13.29;92.74;99865.25;5081882;28;20587;-69
2023/01/02 07:25:37;;;;;;;5.67;2.83;;;;;;;13.19;93.68;99870.81;5098127;28;20870;-69
2023/01/02 07:28:03;;;;;;;12.40;3.17;;;;;;;13.17;93.58;99869.28;5093568;28;20440;-69
2023/01/02 07:30:30;;;;;;;7.70;3.00;;;;;;;13.26;93.23;99880.84;5101038;28;20473;-69
2023/01/02 07:32:57;;;;;;;8.57;3.20;;;;;;;13.26;92.50;99883.53;5084325;28;21027;-70
2023/01/02 07:35:24;;;;;;;15.77;4.10;;;;;;;13.30;92.78;99895.66;5083223;28;20465;-69
2023/01/02 07:37:53;;;;;;;8.30;3.43;;;;;;;13.24;92.59;99886.38;5083990;28;20458;-69
2023/01/02 07:40:19;;;;;;;9.57;3.57;;;;;;;13.34;92.12;99897.84;5095245;28;20899;-69
2023/01/02 07:42:46;;;;;;;6.27;3.30;;;;;;;13.30;92.20;99898.31;5089685;28;20521;-69
2023/01/02 07:45:13;;;;;;;7.30;3.93;;;;;;;13.31;92.10;99906.22;5085143;28;20466;-69
2023/01/02 07:47:39;;;;;;;8.50;3.17;;;;;;;13.32;91.41;99888.28;5092665;28;20471;-69
2023/01/02 07:50:06;;;;;;;6.10;3.40;;;;;;;13.33;91.48;99898.84;5089852;28;20956;-69
2023/01/02 07:52:33;;;;;;;5.77;2.70;;;;;;;13.27;91.57;99904.03;5100612;28;20461;-69
2023/01/02 07:55:01;;;;;;;5.87;2.97;;;;;;;13.25;90.47;99893.44;5093456;28;20461;-69
2023/01/02 07:57:30;;;;;;;10.13;3.00;;;;;;;13.33;90.90;99911.41;5078247;28;20492;-69
2023/01/02 07:59:57;;;;;;;11.03;3.10;;;;;;;13.37;90.42;99902.88;5099986;28;20458;-69
2023/01/02 08:02:23;;;;;;;11.50;3.73;;;;;;;13.40;90.23;99899.00;5100216;28;20470;-69
2023/01/02 08:04:50;;;;;;;6.30;3.30;;;;;;;13.34;90.54;99902.38;5093501;28;20460;-69
2023/01/02 08:07:17;;;;;;;6.93;3.30;;;;;;;13.26;90.90;99905.00;5079971;28;20491;-69
2023/01/02 08:09:43;;;;;;;5.97;3.43;;;;;;;13.22;90.82;99906.38;5081634;28;20458;-68
2023/01/02 08:12:12;;;;;;;9.10;3.00;;;;;;;13.26;91.48;99916.63;5082193;28;20483;-68
2023/01/02 08:14:38;;;;;;;8.80;3.10;;;;;;;13.21;92.44;99923.47;5097815;28;20483;-68
2023/01/02 08:17:05;;;;;;;8.33;3.10;;;;;;;13.16;93.90;99929.34;5084554;28;20506;-68
2023/01/02 08:19:32;;;;;;;6.90;4.00;;;;;;;13.16;94.61;99926.66;5080407;28;20475;-68
2023/01/02 08:21:58;;;;;;;8.63;3.50;;;;;;;13.09;94.71;99931.00;5078723;28;20534;-69
2023/01/02 08:24:25;;;;;;;7.73;3.43;;;;;;;13.15;94.81;99941.91;5079348;28;20485;-69
2023/01/02 08:26:52;;;;;;;14.63;3.07;;;;;;;13.02;95.54;99938.03;5078927;28;20498;-69
2023/01/02 08:29:20;;;;;;;6.97;2.73;;;;;;;13.04;96.64;99944.91;5081687;28;20461;-69
2023/01/02 08:31:47;;;;;;;9.20;3.27;;;;;;;12.85;98.17;99937.16;5077650;28;20476;-69
2023/01/02 08:34:14;;;;;;;10.20;4.07;;;;;;;12.96;97.49;99950.25;5079466;28;20964;-69
2023/01/02 08:36:42;;;;;;;9.57;4.27;;;;;;;12.91;97.79;99952.59;5083571;28;20478;-69
2023/01/02 08:39:08;;;;;;;7.00;3.53;;;;;;;12.99;96.71;99952.63;5082212;28;20440;-69
2023/01/02 08:41:37;;;;;;;7.53;3.20;;;;;;;12.90;96.89;99953.63;5082414;28;20861;-69
2023/01/02 08:44:03;;;;;;;6.27;3.50;;;;;;;12.94;97.41;99953.09;5082101;28;20511;-70
2023/01/02 08:46:33;;;;;;;11.30;4.10;;;;;;;13.10;96.75;99951.47;5081962;28;21010;-70
2023/01/02 08:49:00;;;;;;;7.53;3.40;;;;;;;12.94;96.14;99958.47;5079980;28;20437;-70
2023/01/02 08:51:27;;;;;;;6.43;3.17;;;;;;;13.00;95.50;99948.91;5079401;28;20478;-70
2023/01/02 08:53:54;;;;;;;11.10;3.27;;;;;;;13.14;94.83;99956.34;5081557;28;20444;-70
2023/01/02 08:56:22;;;;;;;8.87;3.37;;;;;;;13.15;94.44;99957.19;5080640;28;20478;-69
2023/01/02 08:58:51;;;;;;;6.50;3.20;;;;;;;13.22;93.51;99966.25;5081975;28;20439;-69
2023/01/02 09:01:18;;;;;;;9.60;4.17;;;;;;;13.08;94.25;99970.41;5080817;28;20466;-69
2023/01/02 09:03:46;;;;;;;5.47;3.27;;;;;;;12.89;96.01;99984.94;5079704;28;20548;-69
2023/01/02 09:06:13;;;;;;;6.97;3.30;;;;;;;12.91;98.14;99993.66;5080517;28;20497;-69
2023/01/02 09:08:40;;;;;;;7.63;3.00;;;;;;;12.74;100.00;99987.41;5081913;28;20441;-69
2023/01/02 09:11:11;;;;;;;13.20;3.53;;;;;;;12.53;100.00;100008.41;5079951;28;20498;-69
2023/01/02 09:13:42;;;;;;;6.37;3.07;;;;;;;12.47;100.00;100011.75;5083374;28;20440;-68
2023/01/02 09:16:09;;;;;;;8.70;4.20;;;;;;;12.38;100.00;100010.88;5081687;28;20932;-68
2023/01/02 09:18:40;;;;;;;6.07;3.20;;;;;;;12.43;100.00;100021.97;5081379;28;20507;-68
2023/01/02 09:21:08;;;;;;;8.73;4.03;;;;;;;12.52;100.00;100021.00;5079249;28;20529;-68
2023/01/02 09:23:35;;;;;;;4.87;3.80;;;;;;;12.56;100.00;100029.56;5083105;28;20480;-69
2023/01/02 09:26:04;;;;;;;10.77;5.67;;;;;;;12.63;100.00;100027.91;5089306;28;21016;-69
2023/01/02 09:28:32;;;;;;;6.60;3.60;;;;;;;12.52;100.00;100033.56;5083440;28;20441;-69
2023/01/02 09:30:59;;;;;;;8.30;3.57;;;;;;;12.56;100.00;100034.94;5082901;28;20542;-70
2023/01/02 09:33:25;;;;;;;6.20;3.13;;;;;;;12.61;100.00;100037.97;5088823;28;20803;-70
2023/01/02 09:35:52;;;;;;;10.70;3.80;;;;;;;12.60;100.00;100039.81;5083354;28;20476;-71
2023/01/02 09:38:21;;;;;;;8.07;3.40;;;;;;;12.60;100.00;100042.50;5100152;28;20452;-71
2023/01/02 09:40:49;;;;;;;8.50;3.70;;;;;;;12.89;100.00;100051.19;5091894;28;20489;-70
2023/01/02 09:43:18;;;;;;;8.80;3.70;;;;;;;12.87;100.00;100062.09;5101652;28;20472;-71
2023/01/02 09:45:46;;;;;;;6.00;3.83;;;;;;;13.01;100.00;100057.94;5100889;28;20505;-72
2023/01/02 09:48:15;;;;;;;7.23;3.33;;;;;;;12.84;100.00;100059.72;5100868;28;20454;-71
2023/01/02 09:50:42;;;;;;;3.83;2.67;;;;;;;13.02;99.45;100065.00;5084275;28;20484;-71
2023/01/02 09:53:10;;;;;;;12.13;2.80;;;;;;;13.00;98.45;100067.00;5091298;28;20471;-70
2023/01/02 09:55:44;;;;;;;6.97;3.27;;;;;;;12.89;99.06;100069.97;5090075;28;20476;-70
2023/01/02 09:58:16;;;;;;;7.63;3.60;;;;;;;12.99;99.21;100070.69;5087340;28;20445;-70
2023/01/02 10:00:47;;;;;;;4.83;2.87;;;;;;;12.91;99.13;100074.16;5088687;28;20467;-70
2023/01/02 10:03:20;;;;;;;7.63;2.70;;;;;;;12.81;99.93;100066.25;5092632;28;20467;-71
2023/01/02 10:06:09;;;;;;;8.97;3.33;;;;;;;12.81;100.00;100071.63;5097201;28;20492;-71
2023/01/02 10:08:45;;;;;;;5.67;2.47;;;;;;;12.73;100.00;100071.56;5086803;28;20488;-72
2023/01/02 10:11:24;;;;;;;6.70;4.17;;;;;;;12.66;100.00;100083.94;5095553;28;20471;-71
2023/01/02 10:13:54;;;;;;;7.77;4.10;;;;;;;12.85;100.00;100096.28;5084109;28;20467;-71
2023/01/02 10:16:25;;;;;;;7.43;3.17;;;;;;;12.57;100.00;100085.72;5099324;28;20467;-71
2023/01/02 10:18:54;;;;;;;5.93;2.80;;;;;;;12.22;100.00;100097.34;5088410;28;20457;-69
2023/01/02 10:21:23;;;;;;;5.53;3.10;;;;;;;12.30;100.00;100094.72;5079806;28;20511;-70
2023/01/02 10:23:52;;;;;;;4.53;3.20;;;;;;;12.43;100.00;100105.06;5098296;28;20467;-70
2023/01/02 10:26:22;;;;;;;4.27;2.80;;;;;;;12.58;100.00;100102.66;5087997;28;20483;-70
2023/01/02 10:28:52;;;;;;;4.77;2.70;;;;;;;12.78;100.00;100104.13;5093799;28;20812;-70
2023/01/02 10:31:21;;;;;;;3.00;2.43;;;;;;;12.95;100.00;100097.00;5060514;28;20472;-70
2023/01/02 10:33:52;;;;;;;2.97;2.77;;;;;;;12.58;100.00;100091.91;5088990;28;20444;-69
2023/01/02 10:36:23;;;;;;;4.10;3.30;;;;;;;12.66;100.00;100100.03;5090866;28;21003;-69
2023/01/02 10:38:50;;;;;;;6.73;2.83;;;;;;;12.80;100.00;100103.97;5075925;28;20464;-70
2023/01/02 10:41:17;;;;;;;5.30;2.60;;;;;;;12.57;100.00;100109.84;5086879;28;20990;-70
2023/01/02 10:43:53;;;;;;;2.77;2.57;;;;;;;12.67;100.00;100111.59;5080176;28;20529;-73
2023/01/02 10:46:19;;;;;;;3.33;2.20;;;;;;;12.85;100.00;100116.91;5078703;28;20518;-73
2023/01/02 10:48:47;;;;;;;2.80;2.50;;;;;;;12.58;100.00;100127.63;5085106;28;20445;-72
2023/01/02 10:51:15;;;;;;;4.87;2.70;;;;;;;12.76;100.00;100142.84;5082112;28;20565;-72
2023/01/02 10:53:42;;;;;;;5.67;1.80;;;;;;;12.52;100.00;100144.34;5100974;28;20428;-72
2023/01/02 10:56:17;;;;;;;5.83;2.33;;;;;;;12.49;100.00;100139.28;5083085;28;20526;-72
2023/01/02 10:58:47;;;;;;;6.77;2.57;;;;;;;12.47;100.00;100145.81;5077542;28;20453;-72
2023/01/02 11:01:17;;;;;;;2.90;1.57;;;;;;;12.48;99.90;100147.47;5098740;28;20542;-72
2023/01/02 11:03:44;;;;;;;2.87;1.70;;;;;;;12.39;100.00;100162.66;5101214;28;20889;-69
2023/01/02 11:06:19;;;;;;;2.03;1.77;;;;;;;12.44;100.00;100155.00;5088567;28;20471;-69
2023/01/02 11:08:55;;;;;;;3.83;1.30;;;;;;;12.40;99.28;100170.56;5083132;28;20444;-68
2023/01/02 11:11:23;;;;;;;2.33;1.50;;;;;;;12.42;98.77;100165.03;5080537;28;20543;-68
2023/01/02 11:13:54;;;;;;;2.93;1.50;;;;;;;12.51;98.60;100158.75;5096957;28;20432;-68
2023/01/02 11:16:22;;;;;;;1.73;1.30;;;;;;;12.48;98.89;100168.94;5092924;28;21091;-68
2023/01/02 11:18:51;;;;;;;1.90;1.33;;;;;;;12.42;99.62;100178.44;5077890;28;20497;-68
2023/01/02 11:21:25;;;;;;;1.50;1.20;;;;;;;12.51;98.78;100182.88;5073474;28;20513;-68
2023/01/02 11:23:58;;;;;;;3.10;1.27;;;;;;;12.53;97.92;100188.91;5086872;28;20494;-68
2023/01/02 11:26:25;;;;;;;1.93;1.23;;;;;;;12.73;97.36;100189.59;5100624;28;20485;-68
2023/01/02 11:28:54;;;;;;;1.00;0.87;;;;;;;12.26;97.16;100192.56;5101159;28;20441;-68
2023/01/02 11:31:21;;;;;;;1.20;1.10;;;;;;;12.16;96.30;100194.47;5086224;28;20488;-69
2023/01/02 11:33:48;;;;;;;2.03;1.10;;;;;;;12.56;94.55;100207.38;5095310;28;20481;-69
2023/01/02 11:36:17;;;;;;;0.90;0.47;;;;;;;12.08;93.22;100203.25;5091519;28;20499;-68